Isle of Barra, United Kingdom
Current Conditions -  °F | °C
As of 2:20 PM on Tuesday 21 Oct 2014 (Local Time) from EGPL Reporting Station
Rain Showers Rain Showers  
Wind Chill: 39°   Ceiling: 4800
Heat Index: 48°   Visibility: 6mi
Dew Point: 34°   Wind: 33mph
Humidity: 57%   Direction: 320°NW
Pressure: 29.71"   Gusts: NA
Location:  56.96°N, 7.44°W
Report Text: EGPL 211320Z 32029KT 9999 VCSH FEW035 BKN048 09/01 Q1006
Loading
Personal Weather Stations






























Interactive Weather Map
Tropical Storm Tracking
New forecast layout! Learn more

10-Day Weather Forecast

Advertisements
Track Severe Weather on mobile